createdAt,value
2022-11-02T00:00:42.095Z,10.53
2022-11-02T00:03:09.031Z,10.36
2022-11-02T00:05:35.878Z,10.49
2022-11-02T00:08:02.831Z,10.46
2022-11-02T00:10:29.940Z,10.43
2022-11-02T00:12:56.966Z,10.20
2022-11-02T00:15:30.447Z,9.89
2022-11-02T00:20:41.053Z,9.48
2022-11-02T00:23:10.843Z,9.91
2022-11-02T00:25:45.491Z,10.27
2022-11-02T00:28:13.767Z,10.43
2022-11-02T00:30:40.481Z,10.47
2022-11-02T00:33:07.340Z,10.49
2022-11-02T00:35:35.414Z,10.46
2022-11-02T00:38:02.392Z,10.40
2022-11-02T00:40:29.302Z,10.15
2022-11-02T00:42:55.995Z,10.28
2022-11-02T00:45:23.035Z,10.38
2022-11-02T00:47:50.405Z,10.35
2022-11-02T00:50:18.737Z,10.39
2022-11-02T00:52:46.948Z,10.33
2022-11-02T00:55:15.390Z,10.28
2022-11-02T00:57:44.644Z,10.38
2022-11-02T01:00:15.439Z,10.24
2022-11-02T01:02:42.893Z,10.38
2022-11-02T01:05:11.089Z,10.42
2022-11-02T01:07:38.662Z,10.14
2022-11-02T01:10:08.093Z,10.14
2022-11-02T01:12:38.370Z,9.24
2022-11-02T01:15:08.241Z,8.85
2022-11-02T01:17:35.499Z,8.98
2022-11-02T01:20:06.244Z,9.47
2022-11-02T01:22:33.173Z,9.20
2022-11-02T01:24:59.898Z,9.62
2022-11-02T01:27:26.658Z,10.05
2022-11-02T01:29:53.281Z,10.05
2022-11-02T01:32:19.889Z,10.07
2022-11-02T01:34:46.557Z,10.04
2022-11-02T01:37:14.939Z,10.04
2022-11-02T01:39:41.540Z,9.91
2022-11-02T01:42:24.403Z,9.73
2022-11-02T01:44:51.247Z,10.04
2022-11-02T01:47:29.482Z,10.13
2022-11-02T01:50:37.495Z,9.98
2022-11-02T01:53:04.373Z,9.86
2022-11-02T01:55:34.495Z,9.68
2022-11-02T01:58:08.098Z,9.99
2022-11-02T02:00:35.041Z,9.98
2022-11-02T02:03:11.261Z,9.95
2022-11-02T02:05:47.577Z,9.80
2022-11-02T02:08:21.739Z,9.77
2022-11-02T02:10:48.414Z,9.76
2022-11-02T02:13:16.706Z,9.78
2022-11-02T02:16:11.660Z,9.81
2022-11-02T02:18:53.487Z,9.74
2022-11-02T02:21:53.328Z,9.55
2022-11-02T02:24:35.402Z,9.70
2022-11-02T02:27:59.222Z,9.77
2022-11-02T02:30:28.905Z,9.86
2022-11-02T02:33:10.390Z,9.78
2022-11-02T02:35:46.533Z,9.74
2022-11-02T02:38:34.567Z,9.61
2022-11-02T02:41:13.615Z,9.35
2022-11-02T02:43:53.441Z,9.35
2022-11-02T02:46:42.761Z,9.48
2022-11-02T02:49:14.984Z,9.13
2022-11-02T02:51:43.412Z,9.39
2022-11-02T02:54:17.889Z,9.36
2022-11-02T02:56:51.775Z,9.37
2022-11-02T02:59:42.298Z,9.39
2022-11-02T03:02:25.489Z,9.24
2022-11-02T03:04:52.992Z,9.39
2022-11-02T03:07:34.250Z,9.22
2022-11-02T03:10:32.802Z,9.21
2022-11-02T03:13:42.078Z,9.17
2022-11-02T03:16:46.399Z,9.30
2022-11-02T03:19:26.818Z,9.19
2022-11-02T03:22:06.574Z,9.44
2022-11-02T03:24:50.337Z,9.25
2022-11-02T03:27:38.075Z,9.11
2022-11-02T03:30:42.161Z,9.05
2022-11-02T03:33:26.025Z,8.95
2022-11-02T03:36:05.511Z,8.85
2022-11-02T03:38:42.417Z,8.86
2022-11-02T03:41:10.567Z,8.90
2022-11-02T03:43:40.009Z,8.87
2022-11-02T03:46:10.683Z,8.78
2022-11-02T03:48:46.574Z,8.95
2022-11-02T03:51:19.646Z,8.85
2022-11-02T03:53:58.914Z,8.80
2022-11-02T03:56:37.969Z,8.70
2022-11-02T03:59:04.654Z,8.64
2022-11-02T04:01:36.986Z,8.64
2022-11-02T04:04:05.082Z,8.75
2022-11-02T04:06:33.033Z,8.81
2022-11-02T04:09:00.129Z,8.95
2022-11-02T04:11:46.399Z,8.69
2022-11-02T04:14:33.124Z,8.69
2022-11-02T04:17:19.343Z,8.69
2022-11-02T04:19:50.300Z,8.76
2022-11-02T04:22:37.707Z,8.89
2022-11-02T04:25:15.716Z,9.28
2022-11-02T04:27:53.259Z,9.35
2022-11-02T04:30:24.897Z,9.14
2022-11-02T04:33:12.541Z,9.26
2022-11-02T04:35:46.473Z,8.84
2022-11-02T04:38:32.065Z,8.94
2022-11-02T04:41:18.664Z,9.02
2022-11-02T04:43:48.265Z,8.64
2022-11-02T04:46:17.619Z,8.62
2022-11-02T04:48:45.428Z,8.71
2022-11-02T04:51:12.762Z,8.87
2022-11-02T04:53:39.774Z,8.79
2022-11-02T04:56:09.387Z,8.75
2022-11-02T04:58:36.277Z,8.73
2022-11-02T05:01:15.797Z,8.66
2022-11-02T05:03:46.235Z,8.82
2022-11-02T05:06:13.088Z,8.63
2022-11-02T05:08:39.929Z,8.48
2022-11-02T05:11:07.371Z,8.69
2022-11-02T05:13:34.467Z,8.85
2022-11-02T05:16:01.918Z,8.88
2022-11-02T05:18:29.878Z,8.94
2022-11-02T05:21:01.202Z,9.17
2022-11-02T05:23:29.958Z,9.02
2022-11-02T05:26:02.089Z,9.16
2022-11-02T05:28:32.119Z,9.17
2022-11-02T05:31:01.077Z,9.16
2022-11-02T05:33:31.115Z,8.95
2022-11-02T05:36:00.672Z,9.03
2022-11-02T05:38:29.301Z,8.53
2022-11-02T05:40:59.525Z,8.43
2022-11-02T05:43:29.679Z,8.32
2022-11-02T05:46:01.341Z,8.02
2022-11-02T05:48:31.344Z,8.45
2022-11-02T05:51:00.855Z,8.09
2022-11-02T05:53:31.591Z,8.12
2022-11-02T05:56:02.056Z,8.59
2022-11-02T05:58:29.411Z,7.97
2022-11-02T06:01:04.010Z,7.63
2022-11-02T06:03:32.195Z,7.69
2022-11-02T06:06:00.499Z,7.69
2022-11-02T06:08:27.845Z,7.71
2022-11-02T06:10:54.705Z,6.84
2022-11-02T06:13:21.524Z,7.55
2022-11-02T06:15:48.122Z,7.40
2022-11-02T06:18:14.761Z,7.82
2022-11-02T06:20:41.384Z,8.45
2022-11-02T06:23:08.591Z,8.41
2022-11-02T06:25:35.493Z,8.78
2022-11-02T06:28:02.151Z,8.21
2022-11-02T06:30:30.765Z,8.24
2022-11-02T06:32:59.452Z,7.63
2022-11-02T06:35:28.112Z,7.19
2022-11-02T06:37:54.775Z,7.14
2022-11-02T06:40:24.180Z,7.19
2022-11-02T06:43:15.426Z,7.08
2022-11-02T06:45:42.994Z,7.89
2022-11-02T06:48:09.580Z,7.42
2022-11-02T06:50:36.269Z,7.27
2022-11-02T06:53:03.191Z,7.26
2022-11-02T06:55:30.122Z,6.73
2022-11-02T06:57:56.827Z,7.23
2022-11-02T07:00:24.139Z,8.19
2022-11-02T07:03:02.731Z,8.03
2022-11-02T07:05:29.920Z,8.06
2022-11-02T07:07:57.094Z,8.23
2022-11-02T07:10:24.620Z,8.01
2022-11-02T07:12:55.722Z,7.62
2022-11-02T07:15:24.163Z,7.41
2022-11-02T07:17:51.759Z,7.74
2022-11-02T07:20:19.239Z,7.48
2022-11-02T07:22:54.590Z,7.99
2022-11-02T07:25:21.770Z,8.12
2022-11-02T07:27:48.442Z,7.86
2022-11-02T07:30:15.332Z,7.82
2022-11-02T07:32:43.969Z,7.72
2022-11-02T07:35:12.794Z,8.46
2022-11-02T07:37:40.353Z,8.75
2022-11-02T07:40:09.062Z,8.43
2022-11-02T07:42:35.920Z,8.50
2022-11-02T07:45:05.789Z,8.95
2022-11-02T07:47:33.202Z,8.76
2022-11-02T07:50:00.735Z,9.19
2022-11-02T07:52:27.430Z,9.05
2022-11-02T07:54:54.189Z,8.22
2022-11-02T07:57:20.788Z,8.28
2022-11-02T07:59:47.420Z,8.62
2022-11-02T08:02:14.110Z,8.32
2022-11-02T08:04:43.954Z,7.99
2022-11-02T08:07:12.755Z,7.99
2022-11-02T08:09:39.436Z,8.14
2022-11-02T08:12:06.506Z,7.64
2022-11-02T08:14:33.170Z,7.88
2022-11-02T08:16:59.845Z,8.08
2022-11-02T08:19:26.459Z,9.01
2022-11-02T08:21:53.161Z,8.77
2022-11-02T08:24:19.786Z,8.89
2022-11-02T08:26:48.496Z,9.18
2022-11-02T08:29:16.741Z,8.70
2022-11-02T08:31:43.383Z,9.33
2022-11-02T08:34:11.966Z,9.46
2022-11-02T08:36:38.598Z,9.64
2022-11-02T08:39:05.322Z,9.33
2022-11-02T08:41:31.996Z,9.63
2022-11-02T08:43:59.064Z,9.72
2022-11-02T08:46:25.711Z,9.40
2022-11-02T08:48:52.516Z,9.16
2022-11-02T08:51:19.167Z,9.18
2022-11-02T08:53:51.158Z,9.35
2022-11-02T08:56:18.565Z,10.03
2022-11-02T08:58:45.206Z,9.63
2022-11-02T09:01:11.936Z,9.76
2022-11-02T09:03:38.592Z,10.24
2022-11-02T09:06:05.506Z,9.99
2022-11-02T09:08:33.195Z,10.35
2022-11-02T09:11:02.817Z,11.20
2022-11-02T09:13:29.923Z,10.36
2022-11-02T09:15:59.061Z,10.72
2022-11-02T09:18:26.035Z,10.07
2022-11-02T09:20:52.712Z,10.81
2022-11-02T09:23:22.239Z,11.30
2022-11-02T09:25:50.156Z,11.04
2022-11-02T09:28:16.881Z,11.10
2022-11-02T09:30:44.321Z,10.51
2022-11-02T09:33:11.828Z,10.26
2022-11-02T09:35:43.537Z,10.04
2022-11-02T09:38:10.732Z,10.46
2022-11-02T09:40:43.821Z,10.76
2022-11-02T09:43:49.814Z,10.83
2022-11-02T09:46:40.369Z,11.23
2022-11-02T09:49:15.502Z,11.16
2022-11-02T09:51:46.312Z,10.83
2022-11-02T09:54:21.780Z,10.77
2022-11-02T09:56:50.806Z,10.42
2022-11-02T09:59:24.430Z,10.98
2022-11-02T10:02:18.432Z,11.35
2022-11-02T10:05:29.257Z,11.49
2022-11-02T10:08:26.862Z,11.56
2022-11-02T10:11:42.007Z,11.61
2022-11-02T10:14:18.142Z,11.54
2022-11-02T10:16:53.814Z,11.20
2022-11-02T10:19:24.997Z,11.18
2022-11-02T10:21:58.623Z,11.95
2022-11-02T10:24:42.733Z,11.62
2022-11-02T10:27:26.476Z,10.65
2022-11-02T10:30:03.408Z,10.64
2022-11-02T10:32:34.644Z,11.29
2022-11-02T10:38:16.095Z,11.10
2022-11-02T10:41:11.564Z,11.52
2022-11-02T10:44:34.550Z,11.84
2022-11-02T10:47:39.748Z,11.78
2022-11-02T10:50:57.142Z,12.28
2022-11-02T10:56:32.270Z,10.92
2022-11-02T10:58:58.854Z,11.06
2022-11-02T11:01:28.036Z,11.14
2022-11-02T11:04:00.031Z,11.21
2022-11-02T11:06:42.552Z,10.81
2022-11-02T11:09:23.527Z,10.98
2022-11-02T11:12:06.491Z,10.70
2022-11-02T11:20:38.021Z,10.87
2022-11-02T11:23:18.903Z,11.27
2022-11-02T11:26:11.907Z,11.58
2022-11-02T11:28:54.761Z,11.60
2022-11-02T11:31:22.021Z,12.11
2022-11-02T11:33:56.121Z,11.77
2022-11-02T11:36:35.995Z,11.90
2022-11-02T11:39:27.694Z,11.35
2022-11-02T11:41:55.025Z,11.71
2022-11-02T11:44:22.367Z,11.06
2022-11-02T11:46:56.162Z,10.98
2022-11-02T11:52:31.596Z,10.78
2022-11-02T11:55:01.756Z,11.28
2022-11-02T11:57:38.842Z,11.40
2022-11-02T12:00:28.997Z,11.39
2022-11-02T12:03:20.510Z,10.79
2022-11-02T12:06:21.042Z,11.16
2022-11-02T12:09:24.219Z,11.25
2022-11-02T12:12:06.859Z,10.66
2022-11-02T12:15:14.969Z,10.71
2022-11-02T12:18:14.347Z,10.50
2022-11-02T12:21:10.660Z,10.61
2022-11-02T12:24:04.526Z,10.85
2022-11-02T12:26:57.169Z,10.67
2022-11-02T12:29:57.425Z,11.59
2022-11-02T12:33:05.832Z,12.18
2022-11-02T12:35:55.042Z,12.15
2022-11-02T12:38:59.887Z,12.21
2022-11-02T12:41:46.231Z,11.73
2022-11-02T12:44:43.904Z,11.45
2022-11-02T12:47:16.352Z,11.56
2022-11-02T12:50:27.751Z,12.07
2022-11-02T12:53:41.974Z,12.02
2022-11-02T12:56:33.584Z,12.24
2022-11-02T12:59:00.490Z,11.81
2022-11-02T13:01:41.015Z,11.88
2022-11-02T13:04:28.037Z,12.21
2022-11-02T13:07:13.619Z,12.74
2022-11-02T13:10:00.874Z,12.62
2022-11-02T13:12:28.552Z,13.06
2022-11-02T13:14:58.226Z,12.57
2022-11-02T13:17:46.826Z,12.19
2022-11-02T13:20:18.163Z,11.45
2022-11-02T13:22:54.045Z,11.15
2022-11-02T13:25:33.121Z,11.35
2022-11-02T13:28:12.812Z,11.49
2022-11-02T13:30:41.189Z,11.35
2022-11-02T13:33:26.384Z,11.89
2022-11-02T13:35:54.223Z,11.32
2022-11-02T13:38:35.416Z,11.32
2022-11-02T13:41:31.031Z,11.24
2022-11-02T13:44:25.449Z,11.32
2022-11-02T13:47:06.932Z,11.17
2022-11-02T13:49:40.064Z,11.50
2022-11-02T13:52:15.313Z,11.95
2022-11-02T13:54:51.129Z,11.54
2022-11-02T13:57:44.616Z,11.20
2022-11-02T14:00:28.144Z,11.32
2022-11-02T14:03:07.035Z,10.40
2022-11-02T14:05:41.039Z,10.59
2022-11-02T14:08:16.239Z,11.20
2022-11-02T14:10:43.088Z,11.71
2022-11-02T14:13:17.607Z,11.70
2022-11-02T14:15:44.445Z,11.57
2022-11-02T14:18:27.123Z,11.39
2022-11-02T14:20:53.817Z,11.15
2022-11-02T14:23:23.429Z,11.08
2022-11-02T14:25:52.521Z,10.70
2022-11-02T14:28:22.127Z,10.09
2022-11-02T14:31:16.515Z,10.26
2022-11-02T14:34:07.540Z,10.43
2022-11-02T14:37:08.096Z,10.69
2022-11-02T14:39:58.819Z,10.72
2022-11-02T14:43:02.848Z,10.42
2022-11-02T14:46:23.729Z,10.57
2022-11-02T14:48:57.491Z,10.09
2022-11-02T14:51:27.381Z,10.47
2022-11-02T14:54:14.195Z,10.12
2022-11-02T14:56:55.593Z,9.72
2022-11-02T14:59:28.469Z,9.96
2022-11-02T15:02:04.339Z,9.90
2022-11-02T15:04:34.534Z,10.13
2022-11-02T15:07:04.764Z,9.80
2022-11-02T15:10:16.453Z,10.04
2022-11-02T15:12:46.177Z,9.67
2022-11-02T15:15:37.200Z,9.43
2022-11-02T15:18:34.280Z,9.16
2022-11-02T15:21:10.564Z,9.30
2022-11-02T15:24:17.128Z,9.14
2022-11-02T15:26:51.666Z,9.23
2022-11-02T15:29:37.026Z,9.10
2022-11-02T15:32:09.804Z,8.99
2022-11-02T15:34:42.106Z,8.70
2022-11-02T15:37:18.239Z,8.82
2022-11-02T15:39:51.100Z,9.14
2022-11-02T15:42:48.307Z,9.22
2022-11-02T15:45:42.142Z,8.96
2022-11-02T15:48:47.967Z,8.89
2022-11-02T15:51:35.560Z,9.00
2022-11-02T15:54:46.044Z,8.63
2022-11-02T15:57:25.148Z,8.63
2022-11-02T16:00:21.851Z,8.54
2022-11-02T16:02:52.954Z,8.62
2022-11-02T16:05:29.186Z,8.90
2022-11-02T16:08:10.614Z,8.83
2022-11-02T16:10:37.697Z,9.08
2022-11-02T16:13:10.233Z,9.19
2022-11-02T16:15:42.188Z,9.30
2022-11-02T16:18:36.956Z,9.29
2022-11-02T16:21:06.583Z,9.33
2022-11-02T16:23:40.000Z,9.35
2022-11-02T16:26:13.545Z,9.44
2022-11-02T16:28:40.365Z,9.70
2022-11-02T16:31:18.611Z,9.58
2022-11-02T16:33:50.686Z,9.46
2022-11-02T16:36:30.961Z,9.77
2022-11-02T16:39:01.634Z,10.02
2022-11-02T16:41:31.856Z,9.82
2022-11-02T16:44:07.451Z,10.21
2022-11-02T16:46:50.277Z,10.79
2022-11-02T16:49:23.008Z,11.15
2022-11-02T16:51:57.813Z,10.80
2022-11-02T16:54:33.353Z,11.49
2022-11-02T16:57:18.100Z,10.33
2022-11-02T17:00:01.330Z,10.40
2022-11-02T17:02:38.042Z,10.58
2022-11-02T17:05:14.313Z,10.67
2022-11-02T17:07:44.762Z,10.48
2022-11-02T17:10:23.796Z,10.76
2022-11-02T17:12:50.855Z,10.79
2022-11-02T17:15:24.629Z,10.65
2022-11-02T17:18:23.002Z,10.63
2022-11-02T17:21:12.113Z,10.27
2022-11-02T17:23:44.187Z,10.51
2022-11-02T17:26:29.713Z,11.21
2022-11-02T17:29:26.319Z,11.74
2022-11-02T17:32:00.708Z,12.45
2022-11-02T17:34:27.984Z,12.58
2022-11-02T17:36:55.149Z,12.66
2022-11-02T17:39:21.838Z,12.21
2022-11-02T17:42:15.686Z,12.25
2022-11-02T17:44:45.264Z,12.23
2022-11-02T17:47:13.494Z,12.38
2022-11-02T17:49:40.209Z,12.47
2022-11-02T17:52:07.642Z,12.41
2022-11-02T17:54:34.268Z,12.15
2022-11-02T17:57:02.266Z,11.80
2022-11-02T17:59:29.177Z,11.72
2022-11-02T18:01:55.902Z,11.09
2022-11-02T18:04:22.644Z,11.29
2022-11-02T18:06:49.288Z,10.82
2022-11-02T18:09:19.144Z,10.89
2022-11-02T18:11:46.439Z,11.16
2022-11-02T18:14:16.707Z,11.45
2022-11-02T18:16:44.422Z,11.52
2022-11-02T18:19:11.401Z,11.53
2022-11-02T18:21:38.201Z,11.48
2022-11-02T18:24:05.213Z,11.50
2022-11-02T18:26:31.858Z,11.49
2022-11-02T18:28:58.607Z,11.42
2022-11-02T18:31:25.233Z,11.40
2022-11-02T18:33:52.882Z,11.32
2022-11-02T18:36:19.895Z,11.30
2022-11-02T18:38:46.546Z,10.99
2022-11-02T18:41:32.088Z,11.05
2022-11-02T18:44:04.892Z,11.05
2022-11-02T18:46:34.722Z,11.03
2022-11-02T18:49:01.791Z,10.98
2022-11-02T18:51:28.521Z,10.88
2022-11-02T18:54:04.448Z,10.76
2022-11-02T18:56:31.883Z,10.84
2022-11-02T18:58:58.785Z,10.63
2022-11-02T19:01:26.529Z,10.29
2022-11-02T19:04:02.828Z,10.04
2022-11-02T19:06:50.273Z,10.14
2022-11-02T19:09:18.457Z,9.70
2022-11-02T19:12:00.093Z,9.78
2022-11-02T19:14:29.589Z,9.68
2022-11-02T19:16:56.407Z,9.74
2022-11-02T19:19:23.121Z,9.78
2022-11-02T19:21:50.151Z,9.94
2022-11-02T19:24:16.934Z,10.07
2022-11-02T19:26:43.739Z,10.12
2022-11-02T19:29:10.364Z,10.25
2022-11-02T19:31:37.039Z,10.21
2022-11-02T19:34:04.512Z,10.03
2022-11-02T19:36:32.615Z,9.99
2022-11-02T19:39:00.184Z,9.91
2022-11-02T19:41:26.970Z,9.82
2022-11-02T19:43:53.767Z,9.62
2022-11-02T19:46:22.240Z,9.75
2022-11-02T19:48:49.481Z,9.79
2022-11-02T19:51:28.401Z,9.88
2022-11-02T19:54:00.707Z,9.79
2022-11-02T19:56:30.389Z,9.65
2022-11-02T19:58:58.014Z,9.86
2022-11-02T20:01:28.434Z,9.93
2022-11-02T20:03:55.975Z,9.83
2022-11-02T20:06:24.831Z,9.85
2022-11-02T20:08:53.851Z,9.89
2022-11-02T20:11:22.183Z,9.94
2022-11-02T20:13:49.973Z,9.73
2022-11-02T20:16:18.960Z,9.89
2022-11-02T20:18:48.655Z,9.84
2022-11-02T20:21:24.692Z,9.80
2022-11-02T20:23:55.386Z,9.56
2022-11-02T20:26:25.960Z,9.52
2022-11-02T20:28:52.775Z,9.24
2022-11-02T20:31:26.661Z,9.23
2022-11-02T20:33:53.846Z,9.33
2022-11-02T20:36:20.593Z,9.24
2022-11-02T20:38:47.470Z,9.21
2022-11-02T20:41:17.297Z,8.89
2022-11-02T20:43:47.085Z,8.62
2022-11-02T20:49:20.229Z,8.97
2022-11-02T20:51:52.750Z,9.00
2022-11-02T20:54:20.774Z,9.01
2022-11-02T20:56:49.474Z,8.99
2022-11-02T20:59:16.399Z,8.98
2022-11-02T21:01:43.303Z,9.01
2022-11-02T21:04:12.858Z,9.08
2022-11-02T21:06:45.418Z,9.06
2022-11-02T21:09:12.357Z,9.05
2022-11-02T21:11:58.257Z,8.88
2022-11-02T21:14:25.135Z,8.91
2022-11-02T21:16:51.873Z,8.79
2022-11-02T21:19:18.563Z,7.88
2022-11-02T21:21:45.279Z,8.58
2022-11-02T21:24:12.527Z,8.73
2022-11-02T21:26:39.252Z,8.73
2022-11-02T21:29:05.876Z,8.80
2022-11-02T21:31:32.569Z,8.72
2022-11-02T21:33:59.223Z,8.48
2022-11-02T21:36:25.921Z,8.51
2022-11-02T21:38:52.655Z,8.40
2022-11-02T21:41:25.477Z,7.88
2022-11-02T21:43:52.338Z,7.94
2022-11-02T21:46:19.698Z,8.13
2022-11-02T21:48:47.034Z,8.16
2022-11-02T21:51:17.603Z,8.03
2022-11-02T21:53:45.944Z,8.07
2022-11-02T21:56:18.414Z,7.66
2022-11-02T21:58:48.197Z,7.71
2022-11-02T22:01:45.168Z,7.54
2022-11-02T22:04:15.928Z,7.50
2022-11-02T22:06:43.082Z,7.64
2022-11-02T22:09:12.478Z,7.86
2022-11-02T22:11:39.797Z,8.03
2022-11-02T22:14:06.617Z,8.24
2022-11-02T22:16:37.603Z,8.34
2022-11-02T22:19:13.321Z,8.40
2022-11-02T22:21:44.223Z,8.29
2022-11-02T22:24:11.794Z,8.42
2022-11-02T22:26:39.648Z,8.33
2022-11-02T22:29:09.925Z,8.24
2022-11-02T22:31:41.585Z,8.26
2022-11-02T22:34:14.626Z,8.29
2022-11-02T22:36:44.814Z,7.38
2022-11-02T22:39:13.934Z,7.73
2022-11-02T22:41:48.009Z,8.06
2022-11-02T22:44:19.011Z,8.20
2022-11-02T22:46:50.792Z,8.04
2022-11-02T22:49:19.729Z,8.03
2022-11-02T22:51:49.250Z,8.21
2022-11-02T22:54:19.234Z,7.94
2022-11-02T22:56:48.130Z,8.13
2022-11-02T22:59:15.351Z,7.87
2022-11-02T23:01:42.354Z,8.02
2022-11-02T23:04:11.267Z,8.12
2022-11-02T23:06:38.067Z,8.23
2022-11-02T23:09:05.319Z,8.16
2022-11-02T23:11:36.416Z,8.19
2022-11-02T23:14:13.280Z,8.06
2022-11-02T23:16:48.586Z,8.18
2022-11-02T23:19:30.015Z,7.65
2022-11-02T23:22:25.174Z,7.97
2022-11-02T23:25:14.885Z,7.41
2022-11-02T23:28:17.456Z,7.15
2022-11-02T23:31:03.455Z,7.68
2022-11-02T23:33:33.783Z,7.78
2022-11-02T23:36:15.268Z,8.06
2022-11-02T23:39:03.732Z,7.97
2022-11-02T23:41:35.637Z,7.93
2022-11-02T23:44:12.320Z,7.96
2022-11-02T23:46:44.688Z,8.07
2022-11-02T23:49:12.418Z,8.01
2022-11-02T23:51:58.083Z,7.94
2022-11-02T23:54:43.401Z,7.64
2022-11-02T23:57:10.090Z,7.55
2022-11-02T23:59:37.020Z,7.48
